Last 24 Hours

Squaw-Red Dog 6200'

Hourly Data | America/Los_Angeles
as of 10/18/19 8:01 AM PDT
Date & Time Temp (°F) RH (%) Dew Pt (°F) Wet Bulb (°F) Wind Dir (°) Wind Spd (mph) Wind Gust (mph) Latest Rain (In) New Snow (in) SnowDepth (in) Daily Min Temp (°F) Daily Max Temp (°F) Daily Rain (In)
10/18/19 - 0800 26.1 98 25.5 25.8 S | 171 0.3 2.1 0.00 82.4 16.8 24.6 28.8 0.00
10/18/19 - 0700 25.4 98 24.9 25.1 ESE | 114 0.2 1.8 0.00 80.1 12.6 24.6 28.8 0.00
10/18/19 - 0600 25.8 98 25.4 25.6 WNW | 292 0.4 2.0 0.00 82.5 15.6 24.9 28.8 0.00
10/18/19 - 0500 26.4 98 26.0 26.2 WSW | 249 0.2 1.8 0.00 83.8 17.9 25.2 28.8 0.00
10/18/19 - 0400 26.0 98 25.4 25.7 W | 274 0.2 1.7 0.00 82.4 16.6 25.7 28.8 0.00
10/18/19 - 0300 27.4 98 26.8 27.0 NNW | 340 0.6 2.8 0.00 82.2 12.8 26.3 28.8 0.00
10/18/19 - 0200 26.7 95 25.6 26.2 WSW | 243 0.7 2.7 0.00 83.6 12.1 26.7 28.8 0.00
10/18/19 - 0100 28.4 97 27.7 28.0 NW | 314 0.6 2.3 0.00 83.6 19.5 28.0 28.8 0.00
10/18/19 - 0000 28.5 93 26.9 27.8 W | 265 0.4 1.8 0.00 82.1 19.6 28.5 52.5 0.00
10/17/19 - 2300 30.0 89 27.1 28.9 W | 264 1.0 3.7 0.00 82.2 19.9 30.0 52.5 0.00
10/17/19 - 2200 31.5 85 27.6 30.0 WSW | 257 0.8 4.2 0.00 82.0 15.4 31.5 52.5 0.00
10/17/19 - 2100 34.1 80 28.5 31.9 WSW | 243 1.1 3.9 0.00 82.8 14.8 33.7 52.5 0.00
10/17/19 - 2000 39.1 70 30.0 35.5 WNW | 302 2.7 7.5 0.00 84.8 14.6 38.4 52.5 0.00
10/17/19 - 1900 41.0 65 30.1 36.6 NW | 320 5.0 9.9 0.00 84.5 9.0 39.8 52.5 0.00
10/17/19 - 1800 42.5 66 31.9 38.1 NNW | 334 5.6 11.0 0.00 81.6 15.1 39.8 52.5 0.00
10/17/19 - 1700 44.7 61 32.0 39.3 NNW | 342 7.4 13.6 0.00 81.4 15.2 39.8 52.5 0.00
10/17/19 - 1600 46.3 50 28.7 39.0 N | 354 9.2 16.2 0.00 79.4 15.1 39.8 52.5 0.00
10/17/19 - 1500 47.1 52 30.5 40.1 NNW | 345 9.5 16.3 0.00 82.0 15.7 39.8 52.5 0.00
10/17/19 - 1400 47.6 52 31.1 40.6 N | 353 9.9 20.1 0.00 82.7 16.2 39.8 52.5 0.00
10/17/19 - 1300 46.4 54 30.7 39.8 N | 358 9.1 15.8 0.00 82.8 15.0 39.8 52.5 0.00
10/17/19 - 1200 46.3 51 29.4 39.3 N | 5 10.7 19.1 0.00 84.8 16.1 39.8 52.5 0.00
10/17/19 - 1100 45.5 63 33.7 40.5 N | 357 8.8 16.0 0.00 83.7 14.8 39.8 52.5 0.00
10/17/19 - 1000 43.2 64 31.7 38.4 N | 351 8.7 17.2 0.00 85.0 - 39.8 52.5 0.00
10/17/19 - 0900 42.2 72 33.8 38.7 NNW | 338 6.0 13.7 0.00 85.5 12.0 39.8 52.5 0.00
10/17/19 - 0800 42.5 66 31.8 38.1 N | 353 10.0 19.5 0.00 84.5 - 39.8 52.5 0.00
Max 47.6 98 33.8 40.6 - 10.7 20.1 0.00 85.5 19.9 39.8 52.5 0.00
Avg 36.4 76 28.9 33.3 - 4.4 9.1 0.00 82.9 15.3 - - -
Min 25.4 50 24.9 25.1 - 0.2 1.7 0.00 79.4 9.0 24.6 28.8 0.00
Total - - - - - - - 0.00 - - - - -